Time;durP1;ratioP1;P1;durP2;ratioP2;P2;SDS_P1;SDS_P2;PMS_P1;PMS_P2;Temp;Humidity;BMP_temperature;BMP_pressure;BME280_temperature;BME280_humidity;BME280_pressure;Samples;Min_cycle;Max_cycle;Signal;HPM_P1;HPM_P2
2021/05/30 00:00:46;;;;;;;1999.90;999.90;;;;;;;11.83;95.42;98583.28;5032877;28;20504;-64
2021/05/30 00:03:13;;;;;;;1999.90;999.90;;;;;;;11.02;98.09;98577.25;5030530;28;20146;-63
2021/05/30 00:05:40;;;;;;;1999.90;999.90;;;;;;;11.12;98.94;98579.72;5032186;28;20094;-63
2021/05/30 00:08:07;;;;;;;1999.90;999.90;;;;;;;11.04;100.00;98575.75;5032786;28;20053;-64
2021/05/30 00:10:34;;;;;;;1999.90;999.90;;;;;;;10.97;100.00;98585.69;5030652;28;20049;-64
2021/05/30 00:13:02;;;;;;;1999.90;999.90;;;;;;;11.05;100.00;98577.41;5032078;28;20431;-64
2021/05/30 00:15:28;;;;;;;1999.90;999.90;;;;;;;11.32;99.49;98580.22;5032835;28;20053;-64
2021/05/30 00:17:56;;;;;;;1999.90;999.90;;;;;;;11.37;98.77;98571.72;5032055;28;20049;-64
2021/05/30 00:20:22;;;;;;;1999.90;999.90;;;;;;;11.16;99.97;98566.03;5032907;28;20088;-64
2021/05/30 00:22:49;;;;;;;1999.90;999.90;;;;;;;11.54;98.23;98573.69;5032005;28;20049;-64
2021/05/30 00:25:16;;;;;;;1999.90;999.90;;;;;;;11.06;100.00;98578.22;5030533;28;20049;-62
2021/05/30 00:27:42;;;;;;;1999.90;999.90;;;;;;;11.30;99.85;98588.84;5033385;28;20072;-65
2021/05/30 00:30:10;;;;;;;1999.90;999.90;;;;;;;11.07;100.00;98577.88;5029920;28;20398;-62
2021/05/30 00:32:36;;;;;;;1999.90;999.90;;;;;;;11.11;99.99;98575.31;5031893;28;20053;-62
2021/05/30 00:35:04;;;;;;;1999.90;999.90;;;;;;;11.19;100.00;98571.72;5033287;28;20069;-63
2021/05/30 00:37:30;;;;;;;1999.90;999.90;;;;;;;11.35;98.70;98580.34;5031339;28;20041;-62
2021/05/30 00:39:57;;;;;;;1999.90;999.90;;;;;;;11.42;98.23;98574.34;5031884;28;20046;-64
2021/05/30 00:42:23;;;;;;;1999.90;999.90;;;;;;;11.76;97.39;98572.66;5032549;28;20099;-63
2021/05/30 00:44:50;;;;;;;1999.90;999.90;;;;;;;11.81;96.22;98578.06;5030627;28;20045;-64
2021/05/30 00:47:17;;;;;;;1999.90;999.90;;;;;;;11.73;96.05;98576.09;5030621;28;20060;-64
2021/05/30 00:49:43;;;;;;;1999.90;999.90;;;;;;;11.82;96.04;98571.38;5031922;28;20389;-64
2021/05/30 00:52:10;;;;;;;1999.90;999.90;;;;;;;11.63;96.37;98574.50;5030960;28;20097;-63
2021/05/30 00:54:38;;;;;;;1999.90;999.90;;;;;;;11.22;98.71;98565.53;5030580;28;20046;-63
2021/05/30 00:57:07;;;;;;;1999.90;999.90;;;;;;;11.56;98.12;98574.19;5031553;28;20049;-64
2021/05/30 00:59:34;;;;;;;1999.90;999.90;;;;;;;11.50;98.33;98567.19;5030841;28;20045;-63
2021/05/30 01:02:01;;;;;;;1999.90;999.90;;;;;;;11.85;96.51;98567.97;5021384;28;20050;-63
2021/05/30 01:04:29;;;;;;;1999.90;999.90;;;;;;;11.98;95.00;98563.38;5031339;28;20099;-64
2021/05/30 01:06:57;;;;;;;1999.90;999.90;;;;;;;11.57;96.97;98576.63;5029673;28;20107;-63
2021/05/30 01:09:26;;;;;;;1999.90;999.90;;;;;;;11.72;97.07;98575.28;5031240;28;20092;-63
2021/05/30 01:11:54;;;;;;;1999.90;999.90;;;;;;;11.41;97.08;98569.94;5030726;28;20115;-63
2021/05/30 01:14:21;;;;;;;1999.90;999.90;;;;;;;11.28;99.55;98574.50;5029773;28;20061;-64
2021/05/30 01:16:48;;;;;;;1999.90;999.90;;;;;;;11.80;97.02;98570.88;5030722;28;20045;-64
2021/05/30 01:19:16;;;;;;;1999.90;999.90;;;;;;;11.91;95.88;98565.81;5030919;28;20427;-64
2021/05/30 01:21:44;;;;;;;1999.90;999.90;;;;;;;11.89;95.19;98571.66;5019979;28;20111;-63
2021/05/30 01:24:11;;;;;;;1999.90;999.90;;;;;;;11.67;96.29;98574.66;5030374;28;20119;-63
2021/05/30 01:26:38;;;;;;;1999.90;999.90;;;;;;;11.26;99.00;98572.03;5030382;28;20397;-63
2021/05/30 01:29:05;;;;;;;1999.90;999.90;;;;;;;11.83;97.10;98577.72;5031083;28;21014;-64
2021/05/30 01:31:32;;;;;;;1999.90;999.90;;;;;;;11.95;95.75;98570.41;5031917;28;20077;-64
2021/05/30 01:33:58;;;;;;;1999.90;999.90;;;;;;;12.03;95.40;98576.25;5028674;28;20446;-63
2021/05/30 01:36:25;;;;;;;1999.90;999.90;;;;;;;12.09;95.13;98572.16;5030914;28;20045;-63
2021/05/30 01:38:52;;;;;;;1999.90;999.90;;;;;;;12.14;94.29;98572.78;5031986;28;20041;-64
2021/05/30 01:41:18;;;;;;;1999.90;999.90;;;;;;;11.87;95.39;98579.50;5030323;28;20357;-63
2021/05/30 01:43:45;;;;;;;1999.90;999.90;;;;;;;11.45;97.67;98568.16;5030901;28;20358;-63
2021/05/30 01:46:12;;;;;;;1999.90;999.90;;;;;;;11.74;97.51;98574.97;5030833;28;20049;-64
2021/05/30 01:48:38;;;;;;;1999.90;999.90;;;;;;;11.97;96.09;98570.88;5030096;28;20063;-64
2021/05/30 01:51:05;;;;;;;1999.90;999.90;;;;;;;12.10;95.15;98573.78;5031318;28;20049;-64
2021/05/30 01:53:40;;;;;;;1999.90;999.90;;;;;;;12.06;94.38;98575.56;5031204;28;20045;-63
2021/05/30 01:58:34;;;;;;;1999.90;999.90;;;;;;;11.77;96.28;98569.56;5030944;28;20093;-65
2021/05/30 02:01:01;;;;;;;1999.90;999.90;;;;;;;11.88;95.35;98578.38;5030727;28;20042;-63
2021/05/30 02:03:29;;;;;;;1999.90;999.90;;;;;;;11.66;97.54;98578.56;5030306;28;20057;-65
2021/05/30 02:05:58;;;;;;;1999.90;999.90;;;;;;;11.61;97.03;98572.06;5031084;28;20458;-63
2021/05/30 02:08:27;;;;;;;1999.90;999.90;;;;;;;11.11;100.00;98578.06;5031020;28;20393;-64
2021/05/30 02:10:54;;;;;;;1999.90;999.90;;;;;;;11.60;98.26;98575.16;5028702;28;20053;-63
2021/05/30 02:13:24;;;;;;;1999.90;999.90;;;;;;;11.35;97.49;98583.13;5031431;28;20099;-64
2021/05/30 02:15:51;;;;;;;1999.90;999.90;;;;;;;11.55;97.91;98578.91;5029795;28;20399;-64
2021/05/30 02:18:18;;;;;;;1999.90;999.90;;;;;;;11.92;96.07;98584.06;5028960;28;20072;-64
2021/05/30 02:20:45;;;;;;;1999.90;999.90;;;;;;;12.11;95.14;98580.97;5031543;28;20121;-64
2021/05/30 02:23:13;;;;;;;1999.90;999.90;;;;;;;11.67;96.43;98577.41;5028091;28;20061;-64
2021/05/30 02:25:41;;;;;;;1999.90;999.90;;;;;;;11.73;95.62;98576.09;5028896;28;20179;-64
2021/05/30 02:28:07;;;;;;;1999.90;999.90;;;;;;;11.52;97.14;98579.56;5031267;28;20045;-64
2021/05/30 02:30:34;;;;;;;1999.90;999.90;;;;;;;11.78;97.20;98587.84;5028372;28;20076;-64
2021/05/30 02:33:03;;;;;;;1999.90;999.90;;;;;;;11.87;96.33;98585.06;5029322;28;20092;-64
2021/05/30 02:35:30;;;;;;;1999.90;999.90;;;;;;;11.61;96.15;98580.38;5031769;28;20045;-64
2021/05/30 02:37:57;;;;;;;1999.90;999.90;;;;;;;11.50;97.50;98581.81;5033520;28;20050;-64
2021/05/30 02:40:24;;;;;;;1999.90;999.90;;;;;;;11.62;97.22;98590.28;5032728;28;20099;-63
2021/05/30 02:42:51;;;;;;;1999.90;999.90;;;;;;;11.54;97.74;98588.34;5034597;28;20422;-64
2021/05/30 02:45:17;;;;;;;1999.90;999.90;;;;;;;11.47;97.21;98581.69;5031684;28;20418;-63
2021/05/30 02:47:45;;;;;;;1999.90;999.90;;;;;;;11.80;96.32;98593.03;5032707;28;20305;-63
2021/05/30 02:50:12;;;;;;;1999.90;999.90;;;;;;;11.75;95.42;98590.47;5034494;28;20315;-63
2021/05/30 02:52:40;;;;;;;1999.90;999.90;;;;;;;11.49;96.70;98582.97;5031819;28;20092;-64
2021/05/30 02:55:07;;;;;;;1999.90;999.90;;;;;;;11.51;96.92;98588.16;5032851;28;20053;-62
2021/05/30 02:57:34;;;;;;;1999.90;999.90;;;;;;;11.66;97.08;98595.19;5033862;28;20049;-63
2021/05/30 03:00:01;;;;;;;1999.90;999.90;;;;;;;11.69;96.56;98594.53;5031725;28;20049;-64
2021/05/30 03:02:27;;;;;;;1999.90;999.90;;;;;;;11.75;97.12;98590.47;5034246;28;20111;-64
2021/05/30 03:04:54;;;;;;;1999.90;999.90;;;;;;;12.20;94.32;98586.47;5033713;28;20095;-63
2021/05/30 03:07:20;;;;;;;1999.90;999.90;;;;;;;12.25;93.55;98595.44;5033466;28;20049;-64
2021/05/30 03:09:47;;;;;;;1999.90;999.90;;;;;;;12.11;93.37;98603.13;5033729;28;20154;-65
2021/05/30 03:12:16;;;;;;;1999.90;999.90;;;;;;;11.88;94.18;98592.22;5033308;28;20049;-64
2021/05/30 03:14:42;;;;;;;1999.90;999.90;;;;;;;12.06;93.44;98592.22;5032279;28;20041;-64
2021/05/30 03:17:09;;;;;;;1999.90;999.90;;;;;;;12.31;92.60;98594.13;5033907;28;20053;-64
2021/05/30 03:19:35;;;;;;;1999.90;999.90;;;;;;;12.25;92.56;98592.66;5032727;28;20041;-64
2021/05/30 03:22:02;;;;;;;1999.90;999.90;;;;;;;12.31;92.12;98591.34;5033206;28;20057;-64
2021/05/30 03:24:29;;;;;;;1999.90;999.90;;;;;;;12.30;91.61;98598.03;5033567;28;20041;-64
2021/05/30 03:26:55;;;;;;;1999.90;999.90;;;;;;;12.43;91.80;98600.91;5032698;28;20045;-64
2021/05/30 03:29:22;;;;;;;1999.90;999.90;;;;;;;12.60;91.41;98611.13;5030470;28;20061;-64
2021/05/30 03:31:49;;;;;;;1999.90;999.90;;;;;;;12.58;90.59;98613.41;5033528;28;20500;-64
2021/05/30 03:34:15;;;;;;;1999.90;999.90;;;;;;;12.02;93.04;98616.19;5031017;28;20057;-64
2021/05/30 03:36:43;;;;;;;1999.90;999.90;;;;;;;11.77;95.20;98611.13;5032032;28;20041;-64
2021/05/30 03:39:10;;;;;;;1999.90;999.90;;;;;;;11.88;94.98;98619.09;5033179;28;20239;-63
2021/05/30 03:41:42;;;;;;;1999.90;999.90;;;;;;;12.18;92.96;98619.25;5030775;28;20045;-63
2021/05/30 03:44:09;;;;;;;;;;;;;;;11.98;94.13;98621.56;5033955;28;20057;-64
2021/05/30 03:46:37;;;;;;;1999.90;999.90;;;;;;;12.37;92.50;98629.97;5031818;28;20435;-65
2021/05/30 03:49:06;;;;;;;1999.90;999.90;;;;;;;12.05;93.80;98619.13;5032489;28;20100;-64
2021/05/30 03:51:33;;;;;;;1999.90;999.90;;;;;;;11.80;94.82;98623.53;5031649;28;20046;-65
2021/05/30 03:54:00;;;;;;;1999.90;999.90;;;;;;;11.92;94.87;98625.63;5032816;28;20119;-67
2021/05/30 03:56:27;;;;;;;1999.90;999.90;;;;;;;11.69;96.02;98628.59;5024834;28;20050;-63
2021/05/30 03:58:56;;;;;;;1999.90;999.90;;;;;;;11.90;95.81;98627.94;5032331;28;20104;-63
2021/05/30 04:01:22;;;;;;;1999.90;999.90;;;;;;;11.94;94.68;98638.06;5032770;28;20175;-64
2021/05/30 04:03:49;;;;;;;1999.90;999.90;;;;;;;11.92;95.16;98631.97;5032230;28;20046;-63
2021/05/30 04:06:17;;;;;;;1999.90;999.90;;;;;;;11.95;94.63;98644.41;5032875;28;20041;-64
2021/05/30 04:08:46;;;;;;;1999.90;999.90;;;;;;;12.01;94.01;98636.75;5032029;28;20363;-65
2021/05/30 04:11:14;;;;;;;1999.90;999.90;;;;;;;11.55;97.27;98634.28;5022603;28;20438;-64
2021/05/30 04:13:40;;;;;;;1999.90;999.90;;;;;;;11.71;97.53;98636.56;5033191;28;20099;-65
2021/05/30 04:16:07;;;;;;;1999.90;999.90;;;;;;;11.88;95.89;98642.13;5030348;28;20083;-65
2021/05/30 04:18:34;;;;;;;1999.90;999.90;;;;;;;12.00;95.85;98643.41;5030822;28;20049;-64
2021/05/30 04:21:01;;;;;;;1999.90;999.90;;;;;;;12.21;94.66;98643.56;5032387;28;20107;-64
2021/05/30 04:23:28;;;;;;;1999.90;999.90;;;;;;;12.18;94.39;98645.03;5029909;28;20099;-65
2021/05/30 04:25:56;;;;;;;1999.90;999.90;;;;;;;12.43;92.58;98642.50;5030807;28;20106;-64
2021/05/30 04:28:23;;;;;;;1999.90;999.90;;;;;;;12.34;92.45;98648.06;5031056;28;20104;-64
2021/05/30 04:30:50;;;;;;;1999.90;999.90;;;;;;;12.25;93.21;98650.06;5030959;28;20429;-65
2021/05/30 04:33:16;;;;;;;1999.90;999.90;;;;;;;12.47;91.54;98646.25;5032121;28;20515;-63
2021/05/30 04:35:43;;;;;;;1999.90;999.90;;;;;;;12.06;92.98;98644.88;5032666;28;20046;-64
2021/05/30 04:38:10;;;;;;;1999.90;999.90;;;;;;;12.17;93.35;98656.44;5029401;28;20390;-64
2021/05/30 04:40:36;;;;;;;1999.90;999.90;;;;;;;12.25;93.25;98650.91;5032351;28;20404;-65
2021/05/30 04:43:03;;;;;;;1999.90;999.90;;;;;;;12.37;92.97;98658.53;5032353;28;20320;-65
2021/05/30 04:45:30;;;;;;;1999.90;999.90;;;;;;;12.31;93.20;98655.13;5029225;28;20056;-65
2021/05/30 04:47:57;;;;;;;1999.90;999.90;;;;;;;12.48;92.21;98653.44;5032273;28;20041;-65
2021/05/30 04:50:24;;;;;;;1999.90;999.90;;;;;;;12.21;92.39;98649.91;5031801;28;20099;-64
2021/05/30 04:52:50;;;;;;;1999.90;999.90;;;;;;;11.94;94.21;98651.91;5031428;28;20107;-64
2021/05/30 04:55:17;;;;;;;1999.90;999.90;;;;;;;12.13;94.85;98653.50;5032168;28;20111;-65
2021/05/30 04:57:46;;;;;;;1999.90;999.90;;;;;;;12.77;91.86;98649.09;5030987;28;20053;-65
2021/05/30 05:00:15;;;;;;;1999.90;999.90;;;;;;;12.59;92.02;98659.44;5029660;28;20076;-65
2021/05/30 05:02:42;;;;;;;1999.90;999.90;;;;;;;11.96;94.38;98652.38;5032139;28;20049;-64
2021/05/30 05:05:12;;;;;;;1999.90;999.90;;;;;;;12.11;93.90;98655.81;5030357;28;20049;-65
2021/05/30 05:07:41;;;;;;;1999.90;999.90;;;;;;;12.12;93.75;98649.94;5029970;28;20045;-64
2021/05/30 05:10:09;;;;;;;1999.90;999.90;;;;;;;11.70;95.07;98648.78;5032128;28;20049;-65
2021/05/30 05:12:35;;;;;;;1999.90;999.90;;;;;;;12.11;94.38;98655.81;5030576;28;20103;-65
2021/05/30 05:15:04;;;;;;;1999.90;999.90;;;;;;;12.60;92.01;98653.56;5031341;28;20049;-65
2021/05/30 05:17:31;;;;;;;1999.90;999.90;;;;;;;12.65;91.73;98649.78;5031971;28;20061;-65
2021/05/30 05:19:57;;;;;;;1999.90;999.90;;;;;;;12.67;91.79;98644.72;5028723;28;20438;-63
2021/05/30 05:22:24;;;;;;;1999.90;999.90;;;;;;;12.00;93.93;98651.72;5031822;28;20046;-63
2021/05/30 05:25:00;;;;;;;1999.90;999.90;;;;;;;12.49;92.41;98653.09;5031700;28;20049;-64
2021/05/30 05:27:26;;;;;;;1999.90;999.90;;;;;;;12.70;91.51;98660.72;5030353;28;20072;-64
2021/05/30 05:29:53;;;;;;;1999.90;999.90;;;;;;;12.68;91.76;98661.03;5031268;28;20087;-64
2021/05/30 05:32:19;;;;;;;1999.90;999.90;;;;;;;12.48;92.64;98656.22;5031625;28;20049;-64
2021/05/30 05:34:46;;;;;;;1999.90;999.90;;;;;;;12.58;91.82;98666.94;5030082;28;20061;-64
2021/05/30 05:37:12;;;;;;;1999.90;999.90;;;;;;;12.37;92.58;98669.63;5030223;28;20045;-63
2021/05/30 05:39:39;;;;;;;1999.90;999.90;;;;;;;12.28;92.40;98677.13;5029918;28;20046;-63
2021/05/30 05:42:06;;;;;;;1999.90;999.90;;;;;;;12.51;91.55;98674.97;5028915;28;20087;-63
2021/05/30 05:44:33;;;;;;;1999.90;999.90;;;;;;;12.44;92.57;98680.19;5031504;28;20064;-63
2021/05/30 05:47:00;;;;;;;1999.90;999.90;;;;;;;12.37;92.43;98680.72;5030849;28;20041;-63
2021/05/30 05:49:27;;;;;;;1999.90;999.90;;;;;;;12.52;91.54;98682.16;5030329;28;20052;-64
2021/05/30 05:51:53;;;;;;;1999.90;999.90;;;;;;;12.84;90.64;98682.69;5031584;28;20045;-64
2021/05/30 05:54:40;;;;;;;1999.90;999.90;;;;;;;12.44;92.63;98685.75;5030737;28;20427;-64
2021/05/30 05:57:07;;;;;;;1999.90;999.90;;;;;;;12.56;92.07;98682.28;5030088;28;20049;-64
2021/05/30 05:59:33;;;;;;;1999.90;999.90;;;;;;;12.83;91.15;98692.97;5031155;28;20427;-64
2021/05/30 06:02:00;;;;;;;1999.90;999.90;;;;;;;13.14;89.80;98700.16;5030170;28;20497;-64
2021/05/30 06:04:26;;;;;;;1999.90;999.90;;;;;;;12.94;90.83;98698.16;5028737;28;20052;-64
2021/05/30 06:06:53;;;;;;;1999.90;999.90;;;;;;;13.08;90.18;98700.72;5030978;28;20045;-64
2021/05/30 06:09:19;;;;;;;1999.90;999.90;;;;;;;12.80;89.50;98710.28;5031043;28;20046;-64
2021/05/30 06:11:46;;;;;;;1999.90;999.90;;;;;;;12.55;90.93;98709.22;5032332;28;20074;-64
2021/05/30 06:14:13;;;;;;;1999.90;999.90;;;;;;;12.23;92.64;98702.25;5035223;28;20127;-64
2021/05/30 06:16:41;;;;;;;1999.90;999.90;;;;;;;12.60;92.02;98706.25;5033124;28;20494;-65
2021/05/30 06:19:07;;;;;;;1999.90;999.90;;;;;;;12.57;91.11;98709.69;5032532;28;20103;-63
2021/05/30 06:21:34;;;;;;;1999.90;999.90;;;;;;;12.30;92.16;98708.94;5035341;28;20053;-65
2021/05/30 06:24:00;;;;;;;1999.90;999.90;;;;;;;12.35;90.88;98712.69;5033685;28;20433;-65
2021/05/30 06:26:27;;;;;;;1999.90;999.90;;;;;;;12.09;93.15;98710.78;5034411;28;20049;-65
2021/05/30 06:28:54;;;;;;;1999.90;999.90;;;;;;;12.56;91.07;98715.56;5034197;28;20038;-65
2021/05/30 06:31:20;;;;;;;1999.90;999.90;;;;;;;12.01;93.28;98729.00;5033310;28;20045;-64
2021/05/30 06:33:47;;;;;;;1999.90;999.90;;;;;;;12.42;92.11;98721.31;5034309;28;20504;-64
2021/05/30 06:36:13;;;;;;;1999.90;999.90;;;;;;;12.44;91.64;98730.13;5034624;28;20103;-63
2021/05/30 06:38:40;;;;;;;1999.90;999.90;;;;;;;12.51;91.74;98727.66;5033625;28;20046;-64
2021/05/30 06:41:07;;;;;;;1999.90;999.90;;;;;;;12.51;92.87;98724.91;5033324;28;20053;-64
2021/05/30 06:43:33;;;;;;;1999.90;999.90;;;;;;;12.53;92.25;98730.91;5034663;28;20123;-64
2021/05/30 06:46:00;;;;;;;1999.90;999.90;;;;;;;12.09;94.86;98730.97;5032711;28;20041;-64
2021/05/30 06:48:26;;;;;;;1999.90;999.90;;;;;;;12.23;94.66;98733.56;5034039;28;20046;-65
2021/05/30 06:51:12;;;;;;;1999.90;999.90;;;;;;;12.46;91.08;98734.19;5034092;28;20103;-64
2021/05/30 06:53:39;;;;;;;1999.90;999.90;;;;;;;12.35;91.62;98732.09;5028090;28;20041;-65
2021/05/30 06:56:06;;;;;;;1999.90;999.90;;;;;;;12.74;89.91;98736.56;5032990;28;20076;-65
2021/05/30 06:58:33;;;;;;;1999.90;999.90;;;;;;;12.57;90.59;98734.66;5034001;28;20054;-65
2021/05/30 07:00:59;;;;;;;1999.90;999.90;;;;;;;12.62;90.04;98739.22;5031591;28;20053;-64
2021/05/30 07:03:26;;;;;;;1999.90;999.90;;;;;;;13.17;87.84;98741.19;5034167;28;20076;-65
2021/05/30 07:05:52;;;;;;;1999.90;999.90;;;;;;;12.45;89.88;98749.22;5033987;28;20123;-64
2021/05/30 07:08:19;;;;;;;1999.90;999.90;;;;;;;12.24;91.36;98746.28;5033019;28;20049;-65
2021/05/30 07:10:46;;;;;;;1999.90;999.90;;;;;;;12.36;91.30;98747.59;5034418;28;20598;-65
2021/05/30 07:13:12;;;;;;;1999.90;999.90;;;;;;;12.45;90.45;98753.94;5033864;28;20056;-65
2021/05/30 07:15:40;;;;;;;1999.90;999.90;;;;;;;12.00;92.53;98754.28;5031733;28;20397;-65
2021/05/30 07:18:06;;;;;;;1999.90;999.90;;;;;;;11.91;92.91;98754.22;5034075;28;20418;-64
2021/05/30 07:20:33;;;;;;;1999.90;999.90;;;;;;;12.07;94.09;98754.59;5032775;28;20076;-66
2021/05/30 07:23:00;;;;;;;1999.90;999.90;;;;;;;12.62;92.08;98753.94;5031712;28;20045;-65
2021/05/30 07:25:26;;;;;;;1999.90;999.90;;;;;;;12.93;90.58;98758.41;5034012;28;20442;-65
2021/05/30 07:27:53;;;;;;;1999.90;999.90;;;;;;;12.77;90.12;98760.91;5032633;28;20100;-65
2021/05/30 07:30:20;;;;;;;1999.90;999.90;;;;;;;12.89;89.88;98762.97;5033242;28;20416;-65
2021/05/30 07:32:47;;;;;;;1999.90;999.90;;;;;;;13.21;88.23;98763.53;5033474;28;20395;-65
2021/05/30 07:35:13;;;;;;;1999.90;999.90;;;;;;;13.01;89.01;98756.72;5031556;28;20049;-64
2021/05/30 07:37:40;;;;;;;1999.90;999.90;;;;;;;13.06;88.45;98769.66;5033586;28;20045;-65
2021/05/30 07:40:07;;;;;;;1999.90;999.90;;;;;;;13.29;88.30;98762.66;5033281;28;20053;-65
2021/05/30 07:42:34;;;;;;;1999.90;999.90;;;;;;;12.81;88.86;98766.59;5032364;28;20497;-65
2021/05/30 07:45:00;;;;;;;1999.90;999.90;;;;;;;13.28;88.08;98774.94;5031859;28;20382;-66
2021/05/30 07:47:27;;;;;;;1999.90;999.90;;;;;;;13.26;86.88;98774.44;5032885;28;20053;-66
2021/05/30 07:49:54;;;;;;;1999.90;999.90;;;;;;;13.43;87.97;98769.97;5031046;28;20124;-64
2021/05/30 07:52:21;;;;;;;1999.90;999.90;;;;;;;13.63;86.68;98772.00;5033267;28;20505;-64
2021/05/30 07:54:48;;;;;;;1999.90;999.90;;;;;;;13.39;88.31;98769.84;5032862;28;20099;-64
2021/05/30 07:57:15;;;;;;;1999.90;999.90;;;;;;;13.47;87.70;98771.78;5031015;28;20338;-65
2021/05/30 07:59:41;;;;;;;1999.90;999.90;;;;;;;13.30;88.58;98774.59;5032891;28;20050;-65
2021/05/30 08:02:08;;;;;;;1999.90;999.90;;;;;;;13.40;87.16;98771.47;5032288;28;20045;-64
2021/05/30 08:04:35;;;;;;;1999.90;999.90;;;;;;;13.47;87.80;98771.78;5032890;28;20103;-65
2021/05/30 08:07:01;;;;;;;1999.90;999.90;;;;;;;13.88;88.07;98780.53;5032369;28;20350;-65
2021/05/30 08:09:28;;;;;;;1999.90;999.90;;;;;;;14.16;84.90;98778.03;5031412;28;20438;-65
2021/05/30 08:11:57;;;;;;;1999.90;999.90;;;;;;;13.58;86.53;98780.53;5031869;28;20092;-65
2021/05/30 08:14:25;;;;;;;1999.90;999.90;;;;;;;13.79;85.16;98783.34;5033090;28;20041;-65
2021/05/30 08:16:52;;;;;;;1999.90;999.90;;;;;;;13.14;86.91;98780.69;5031652;28;20072;-64
2021/05/30 08:19:19;;;;;;;1999.90;999.90;;;;;;;13.17;88.81;98790.31;5032095;28;20041;-65
2021/05/30 08:21:46;;;;;;;1999.90;999.90;;;;;;;13.36;87.38;98787.19;5032229;28;20386;-64
2021/05/30 08:24:12;;;;;;;1999.90;999.90;;;;;;;13.44;88.46;98783.53;5030359;28;20049;-65
2021/05/30 08:26:55;;;;;;;1999.90;999.90;;;;;;;13.19;91.11;98790.81;5030955;28;20132;-65
2021/05/30 08:29:23;;;;;;;1999.90;999.90;;;;;;;13.77;86.52;98796.78;5032640;28;20099;-64
2021/05/30 08:31:52;;;;;;;1999.90;999.90;;;;;;;13.34;86.01;98797.81;5029904;28;20426;-64
2021/05/30 08:34:19;;;;;;;1999.90;999.90;;;;;;;12.80;87.76;98799.09;5030415;28;20115;-65
2021/05/30 08:36:46;;;;;;;1999.90;999.90;;;;;;;12.84;88.87;98794.50;5032407;28;20057;-64
2021/05/30 08:39:13;;;;;;;1999.90;999.90;;;;;;;13.03;87.03;98805.22;5031150;28;20045;-64
2021/05/30 08:41:41;;;;;;;1999.90;999.90;;;;;;;13.13;88.06;98806.00;5032117;28;20045;-65
2021/05/30 08:44:09;;;;;;;1999.90;999.90;;;;;;;13.33;86.96;98810.03;5031199;28;20049;-65
2021/05/30 08:46:37;;;;;;;1999.90;999.90;;;;;;;12.99;87.29;98795.94;5030711;28;20045;-64
2021/05/30 08:49:05;;;;;;;1999.90;999.90;;;;;;;12.97;87.66;98803.78;5032328;28;20080;-65
2021/05/30 08:51:37;;;;;;;1999.90;999.90;;;;;;;13.14;86.89;98807.66;5031063;28;20128;-65
2021/05/30 08:54:07;;;;;;;;;;;;;;;13.01;88.75;98803.91;5030132;28;20049;-64
2021/05/30 08:56:35;;;;;;;1999.90;999.90;;;;;;;12.85;87.96;98812.78;5032532;28;19921;-64
2021/05/30 08:59:16;;;;;;;1999.90;999.90;;;;;;;12.68;89.35;98818.34;5031700;28;20050;-66
2021/05/30 09:01:44;;;;;;;1999.90;999.90;;;;;;;12.71;89.33;98816.91;5031144;28;20095;-65
2021/05/30 09:04:11;;;;;;;1999.90;999.90;;;;;;;12.37;90.11;98819.38;5031615;28;20430;-65
2021/05/30 09:06:40;;;;;;;1999.90;999.90;;;;;;;12.49;91.28;98821.50;5031930;28;20099;-66
2021/05/30 09:09:09;;;;;;;1999.90;999.90;;;;;;;12.42;91.40;98832.25;5030511;28;20373;-65
2021/05/30 09:11:40;;;;;;;1999.90;999.90;;;;;;;12.05;93.29;98840.06;5029262;28;20095;-65
2021/05/30 09:14:13;;;;;;;1999.90;999.90;;;;;;;12.04;91.79;98841.19;5031042;28;20049;-65
2021/05/30 09:17:10;;;;;;;1999.90;999.90;;;;;;;11.93;93.08;98847.03;5025232;28;20049;-65
2021/05/30 09:19:54;;;;;;;1999.90;999.90;;;;;;;11.90;93.63;98836.56;5022634;28;20085;-65
2021/05/30 09:22:34;;;;;;;1999.90;999.90;;;;;;;12.58;91.09;98840.88;5031991;28;20378;-65
2021/05/30 09:25:04;;;;;;;1999.90;999.90;;;;;;;12.35;90.91;98823.63;5030143;28;20096;-65
2021/05/30 09:27:42;;;;;;;1999.90;999.90;;;;;;;12.54;90.28;98835.19;5029989;28;20123;-66
2021/05/30 09:30:16;;;;;;;1999.90;999.90;;;;;;;12.55;89.55;98836.00;5030900;28;20046;-67
2021/05/30 09:33:04;;;;;;;1999.90;999.90;;;;;;;12.87;88.61;98834.66;5023109;28;20042;-65
2021/05/30 09:35:36;;;;;;;1999.90;999.90;;;;;;;12.71;89.96;98837.13;5029574;28;20374;-65
2021/05/30 09:38:03;;;;;;;1999.90;999.90;;;;;;;12.80;90.70;98831.56;5031395;28;20079;-66
2021/05/30 09:41:01;;;;;;;1999.90;999.90;;;;;;;13.08;89.74;98832.00;5031039;28;20096;-65
2021/05/30 09:43:35;;;;;;;1999.90;999.90;;;;;;;12.82;92.96;98832.06;5030824;28;20307;-65
2021/05/30 09:46:13;;;;;;;1999.90;999.90;;;;;;;12.69;93.44;98837.44;5019929;28;20470;-65
2021/05/30 09:48:42;;;;;;;1999.90;999.90;;;;;;;12.85;93.28;98834.19;5031432;28;20128;-65
2021/05/30 09:51:32;;;;;;;1999.90;999.90;;;;;;;13.45;93.05;98840.72;5026374;28;20088;-64
2021/05/30 09:54:03;;;;;;;1999.90;999.90;;;;;;;13.33;91.48;98837.81;5028847;28;20057;-65
2021/05/30 09:56:34;;;;;;;1999.90;999.90;;;;;;;13.28;93.01;98836.03;5012869;28;20115;-65
2021/05/30 09:59:29;;;;;;;1999.90;999.90;;;;;;;14.01;88.72;98839.81;5029917;28;20087;-65
2021/05/30 10:02:01;;;;;;;1999.90;999.90;;;;;;;14.55;87.60;98839.88;5036956;28;20076;-66
2021/05/30 10:04:30;;;;;;;1999.90;999.90;;;;;;;15.02;86.20;98827.72;5030199;28;20313;-66
2021/05/30 10:07:02;;;;;;;1999.90;999.90;;;;;;;14.73;85.29;98825.84;5030639;28;20108;-65
2021/05/30 10:09:30;;;;;;;1999.90;999.90;;;;;;;14.49;87.80;98837.66;5026203;28;20104;-65
2021/05/30 10:11:58;;;;;;;1999.90;999.90;;;;;;;14.66;85.73;98837.53;5030300;28;20049;-66
2021/05/30 10:14:26;;;;;;;1999.90;999.90;;;;;;;14.51;82.80;98829.78;5030472;28;20354;-65
2021/05/30 10:16:53;;;;;;;1999.90;999.90;;;;;;;13.43;84.83;98836.66;5027919;28;20053;-64
2021/05/30 10:19:25;;;;;;;1999.90;999.90;;;;;;;13.39;87.99;98831.75;5029250;28;20442;-65
2021/05/30 10:21:54;;;;;;;1999.90;999.90;;;;;;;14.51;86.68;98824.22;5030799;28;20053;-65
2021/05/30 10:24:22;;;;;;;1999.90;999.90;;;;;;;13.87;86.25;98828.91;5029850;28;20111;-65
2021/05/30 10:27:12;;;;;;;1999.90;999.90;;;;;;;14.43;82.63;98835.06;5029571;28;20073;-65
2021/05/30 10:29:38;;;;;;;1999.90;999.90;;;;;;;14.05;85.68;98835.19;5030205;28;20053;-65
2021/05/30 10:32:19;;;;;;;1999.90;999.90;;;;;;;14.55;81.87;98830.75;5028053;28;20053;-64
2021/05/30 10:35:07;;;;;;;1999.90;999.90;;;;;;;14.26;82.40;98832.41;5029288;28;20057;-65
2021/05/30 10:38:00;;;;;;;1999.90;999.90;;;;;;;14.07;83.45;98830.13;5031032;28;20046;-65
2021/05/30 10:40:29;;;;;;;1999.90;999.90;;;;;;;14.52;82.68;98831.41;5025671;28;20072;-66
2021/05/30 10:43:08;;;;;;;1999.90;999.90;;;;;;;13.38;83.22;98826.53;5028370;28;20512;-65
2021/05/30 10:45:46;;;;;;;1999.90;999.90;;;;;;;13.93;86.01;98830.34;5022207;28;20057;-65
2021/05/30 10:48:18;;;;;;;1999.90;999.90;;;;;;;13.65;84.81;98830.00;5030087;28;20091;-65
2021/05/30 10:53:47;;;;;;;1999.90;999.90;;;;;;;14.53;80.65;98835.81;5019508;28;20049;-65
2021/05/30 10:56:37;;;;;;;1999.90;999.90;;;;;;;14.38;82.67;98832.50;5031144;28;20057;-65
2021/05/30 10:59:04;;;;;;;1999.90;999.90;;;;;;;14.22;81.42;98842.63;5033202;28;20053;-65
2021/05/30 11:01:33;;;;;;;1999.90;999.90;;;;;;;15.04;81.80;98835.72;5032891;28;20327;-65
2021/05/30 11:04:28;;;;;;;1999.90;999.90;;;;;;;16.18;78.80;98833.13;5034138;28;20045;-65
2021/05/30 11:07:18;;;;;;;1999.90;999.90;;;;;;;16.35;73.59;98832.03;5033369;28;20103;-64